Batajnica Air Base

LYBT · Vojvodina, Serbia

Storia di METAR LYBT · Batajnica Air Base

Di seguito sono riportati i METAR degli ultimi giorni. Seleziona un anno per sfogliare i METAR più vecchi, dall'anno 2007 in poi.

23 aprile 2024

Tempo Codice Tempo meteorologico Temp. Vista Base nuvolosa Vento METAR/SPECI
05:30
V
7 °C 10 km+ - 070° 070° 8 kt METAR LYBT 230330Z 07008KT 040V100 CAVOK 07/04 Q1012 NOSIG
05:00
V
7 °C 10 km+ - 070° 070° 9 kt METAR LYBT 230300Z 07009KT CAVOK 07/04 Q1012 NOSIG
04:30
V
7 °C 10 km+ - 060° 060° 10 kt METAR LYBT 230230Z 06010KT CAVOK 07/04 Q1013 NOSIG
04:00
V
7 °C 10 km+ - 070° 070° 9 kt METAR LYBT 230200Z 07009KT 040V100 CAVOK 07/04 Q1013 NOSIG
03:30
V
8 °C 10 km+ - 070° 070° 9 kt METAR LYBT 230130Z 07009KT 040V100 CAVOK 08/04 Q1013 NOSIG
03:00
V
7 °C 10 km+ - 060° 060° 9 kt METAR LYBT 230100Z 06009KT CAVOK 07/05 Q1014 NOSIG
02:30
V
7 °C 10 km+ - 060° 060° 10 kt METAR LYBT 230030Z 06010KT CAVOK 07/05 Q1014 NOSIG
02:00
V
7 °C 10 km+ - 060° 060° 10 kt METAR LYBT 230000Z 06010KT CAVOK 07/05 Q1015 NOSIG
01:30
V
7 °C 10 km+ - 060° 060° 9 kt METAR LYBT 222330Z 06009KT CAVOK 07/05 Q1015 NOSIG
01:00
V
8 °C 10 km+ - 060° 060° 9 kt METAR LYBT 222300Z 06009KT CAVOK 08/05 Q1015 NOSIG
00:30
V
8 °C 10 km+ - 060° 060° 10 kt METAR LYBT 222230Z 06010KT 040V100 CAVOK 08/05 Q1016 NOSIG
00:00
V
8 °C 10 km+ - 070° 070° 10 kt METAR LYBT 222200Z 07010KT CAVOK 08/05 Q1016 NOSIG

22 aprile 2024

Tempo Codice Tempo meteorologico Temp. Vista Base nuvolosa Vento METAR/SPECI
23:30
V
8 °C 10 km+ - 060° 060° 9 kt METAR LYBT 222130Z 06009KT 040V100 CAVOK 08/05 Q1016 NOSIG
23:00
V
9 °C 10 km+ - 070° 070° 9 kt METAR LYBT 222100Z 07009KT 030V100 CAVOK 09/05 Q1016 NOSIG
22:30
V
9 °C 10 km+ - 070° 070° 9 kt METAR LYBT 222030Z 07009KT 040V100 CAVOK 09/05 Q1017 NOSIG
22:00
V
9 °C 10 km+ - 070° 070° 7 kt METAR LYBT 222000Z 07007KT CAVOK 09/04 Q1017 NOSIG
21:30
V
10 °C 10 km+ - 080° 080° 8 kt METAR LYBT 221930Z 08008KT CAVOK 10/03 Q1017 NOSIG
21:00
V
10 °C 10 km+ - 070° 070° 6 kt METAR LYBT 221900Z 07006KT CAVOK 10/02 Q1017 NOSIG
20:30
V
11 °C 10 km+ - 080° 080° 6 kt METAR LYBT 221830Z 08006KT CAVOK 11/01 Q1017 NOSIG
20:00
V
12 °C 10 km+ - 080° 080° 6 kt METAR LYBT 221800Z 08006KT CAVOK 12/01 Q1017 NOSIG
19:30
V
12 °C 10 km+ - 070° 070° 5 kt METAR LYBT 221730Z 07005KT CAVOK 12/01 Q1017 NOSIG
19:00
V
13 °C 10 km+ - 070° 070° 5 kt METAR LYBT 221700Z 07005KT 040V100 CAVOK 13/01 Q1017 NOSIG
18:30
V
14 °C 10 km+ - 070° 070° 7 kt METAR LYBT 221630Z 07007KT 030V120 CAVOK 14/01 Q1017 NOSIG
18:00
V
15 °C 10 km+ - 090° 090° 4 kt METAR LYBT 221600Z 09004KT 010V130 CAVOK 15/01 Q1017 NOSIG
17:30
V
15 °C 10 km+ - 090° 090° 3 kt METAR LYBT 221530Z 09003KT 020V150 CAVOK 15/M00 Q1017 NOSIG
17:00
V
14 °C 10 km+ - 090° 090° 3 kt METAR LYBT 221500Z 09003KT 050V140 CAVOK 14/00 Q1017 NOSIG
16:30
V
15 °C 10 km+ - 100° 100° 5 kt METAR LYBT 221430Z 10005KT 060V160 CAVOK 15/01 Q1017 NOSIG
16:00
V
16 °C 10 km+ - Var Var 3 kt METAR LYBT 221400Z VRB03KT CAVOK 16/01 Q1017 NOSIG
15:30
V
15 °C 10 km+ - Var Var 4 kt METAR LYBT 221330Z VRB04KT CAVOK 15/01 Q1018 NOSIG
15:00
V
15 °C 10 km+ - 320° 320° 3 kt METAR LYBT 221300Z 32003KT 250V040 CAVOK 15/02 Q1018 NOSIG
14:30
V
14 °C 10 km+ - 180° 180° 4 kt METAR LYBT 221230Z 18004KT 130V220 CAVOK 14/01 Q1018 NOSIG
14:00
V
15 °C 10 km+ - 220° 220° 6 kt METAR LYBT 221200Z 22006KT 150V300 CAVOK 15/02 Q1018 NOSIG
13:30
V
14 °C 10 km+ - 190° 190° 4 kt METAR LYBT 221130Z 19004KT 140V260 9999 SCT043 14/02 Q1018 NOSIG
13:00
V
13 °C 10 km+ - 250° 250° 5 kt METAR LYBT 221100Z 25005KT 170V320 9999 SCT043 13/02 Q1018 NOSIG
12:30
V
13 °C 10 km+ 4.000 ft Var Var 6 kt METAR LYBT 221030Z VRB06KT 9999 BKN040 13/03 Q1018 NOSIG
12:00
V
12 °C 10 km+ 3.600 ft 250° 250° 7 kt METAR LYBT 221000Z 25007KT 200V310 9999 BKN036 12/04 Q1018 NOSIG
11:30
V
11 °C 10 km+ 3.300 ft 280° 280° 6 kt METAR LYBT 220930Z 28006KT 220V020 9999 BKN033 11/04 Q1018 NOSIG
11:00
V
11 °C 10 km+ - 240° 240° 6 kt METAR LYBT 220900Z 24006KT 180V290 9999 SCT030 11/05 Q1018 NOSIG
10:30
V
10 °C 10 km+ - 260° 260° 6 kt METAR LYBT 220830Z 26006KT 210V320 9999 SCT030 10/04 Q1018 NOSIG
10:00
V
10 °C 10 km+ - 290° 290° 5 kt METAR LYBT 220800Z 29005KT 240V340 9999 FEW020 10/04 Q1018 NOSIG
09:30
V
9 °C 10 km+ - 270° 270° 3 kt METAR LYBT 220730Z 27003KT 220V310 9999 FEW020 09/05 Q1018 NOSIG
09:00
V
8 °C 10 km+ - 260° 260° 3 kt METAR LYBT 220700Z 26003KT 190V300 CAVOK 08/05 Q1018 NOSIG
08:30
V
7 °C 10 km+ - 280° 280° 3 kt METAR LYBT 220630Z 28003KT 240V320 CAVOK 07/04 Q1017 NOSIG
08:00
V
5 °C 10 km+ - 270° 270° 4 kt METAR LYBT 220600Z 27004KT CAVOK 05/04 Q1017 NOSIG
07:30
V
5 °C 10 km+ - 250° 250° 3 kt METAR LYBT 220530Z 25003KT CAVOK 05/03 Q1017 NOSIG
07:00
V
4 °C 10 km+ - Var Var 2 kt METAR LYBT 220500Z VRB02KT CAVOK 04/03 Q1017 NOSIG
06:30
V
3 °C 10 km+ - 260° 260° 3 kt METAR LYBT 220430Z 26003KT 160V310 CAVOK 03/02 Q1016 NOSIG
06:00
V
3 °C 10 km+ - 280° 280° 4 kt METAR LYBT 220400Z 28004KT CAVOK 03/02 Q1016 NOSIG
05:30
V
3 °C 10 km+ - 270° 270° 5 kt METAR LYBT 220330Z 27005KT CAVOK 03/02 Q1016 NOSIG
05:00
V
3 °C 10 km+ - 290° 290° 4 kt METAR LYBT 220300Z 29004KT CAVOK 03/02 Q1016 NOSIG
04:30
V
4 °C 10 km+ - 270° 270° 3 kt METAR LYBT 220230Z 27003KT 240V320 CAVOK 04/03 Q1016 NOSIG
04:00
V
4 °C 10 km+ - 270° 270° 6 kt METAR LYBT 220200Z 27006KT CAVOK 04/03 Q1016 NOSIG
03:30
V
5 °C 10 km+ - 260° 260° 7 kt METAR LYBT 220130Z 26007KT CAVOK 05/04 Q1015 NOSIG
03:00
V
5 °C 10 km+ - 250° 250° 5 kt METAR LYBT 220100Z 25005KT CAVOK 05/04 Q1015 NOSIG
02:30
V
5 °C 10 km+ - 260° 260° 4 kt METAR LYBT 220030Z 26004KT CAVOK 05/04 Q1015 NOSIG
02:00
V
6 °C 10 km+ - 260° 260° 4 kt METAR LYBT 220000Z 26004KT CAVOK 06/05 Q1015 NOSIG
01:30
V
7 °C 10 km+ - 260° 260° 5 kt METAR LYBT 212330Z 26005KT CAVOK 07/06 Q1015 NOSIG
01:00
V
7 °C 10 km+ - 240° 240° 4 kt METAR LYBT 212300Z 24004KT CAVOK 07/06 Q1015 NOSIG
00:30
V
7 °C 10 km+ - Var Var 1 kt METAR LYBT 212230Z VRB01KT CAVOK 07/06 Q1015 NOSIG
00:00
V
8 °C 10 km+ - Var Var 1 kt METAR LYBT 212200Z VRB01KT CAVOK 08/06 Q1015 NOSIG

21 aprile 2024

Tempo Codice Tempo meteorologico Temp. Vista Base nuvolosa Vento METAR/SPECI
23:30
V
9 °C 10 km+ 4.500 ft 280° 280° 3 kt METAR LYBT 212130Z 28003KT 9999 BKN045 09/06 Q1014 NOSIG
23:00
V
9 °C 10 km+ 4.000 ft 270° 270° 5 kt METAR LYBT 212100Z 27005KT 9999 -RA BKN040 09/06 Q1014 NOSIG
22:30
V
9 °C 10 km+ 4.000 ft 270° 270° 8 kt METAR LYBT 212030Z 27008KT 250V310 9999 -RA BKN040 09/06 Q1014 NOSIG
22:00
V
9 °C 10 km+ 4.500 ft 270° 270° 6 kt METAR LYBT 212000Z 27006KT 9999 -RA BKN045 09/06 Q1014 NOSIG
21:30
V
9 °C 10 km+ 4.500 ft 270° 270° 7 kt METAR LYBT 211930Z 27007KT 9999 -RA BKN045 09/06 Q1014 NOSIG
21:00
V
9 °C 10 km+ 4.500 ft 270° 270° 6 kt METAR LYBT 211900Z 27006KT 9999 -RA BKN045 09/06 Q1014 NOSIG
20:30
V
10 °C 10 km+ 4.500 ft 260° 260° 7 kt METAR LYBT 211830Z 26007KT 9999 -RA BKN045 10/05 Q1013 NOSIG
20:00
V
10 °C 10 km+ 4.800 ft 250° 250° 6 kt METAR LYBT 211800Z 25006KT 220V280 9999 BKN048 10/06 Q1013 NOSIG
19:30
V
10 °C 10 km+ 4.800 ft 230° 230° 6 kt METAR LYBT 211730Z 23006KT 9999 BKN048 10/06 Q1012 NOSIG
19:00
V
10 °C 10 km+ 4.500 ft 230° 230° 10 kt METAR LYBT 211700Z 23010KT 9999 -RA BKN045 10/06 Q1012 NOSIG
18:30
V
10 °C 10 km+ 4.500 ft 240° 240° 10 kt METAR LYBT 211630Z 24010KT 9999 -RA BKN045 10/06 Q1012 NOSIG
18:00
V
10 °C 10 km+ 4.500 ft 250° 250° 10 kt METAR LYBT 211600Z 25010KT 9999 -RA BKN045 10/06 Q1012 NOSIG
17:30
V
10 °C 10 km+ 4.500 ft 230° 230° 9 kt METAR LYBT 211530Z 23009KT 9999 -RA BKN045 10/05 Q1012 NOSIG
17:00
V
11 °C 10 km+ 4.500 ft 250° 250° 9 kt METAR LYBT 211500Z 25009KT 220V290 9999 -RA BKN045 11/04 Q1012 NOSIG
16:30
V
12 °C 10 km+ 4.500 ft 260° 260° 6 kt METAR LYBT 211430Z 26006KT 210V300 9999 BKN045 12/04 Q1012 NOSIG
16:00
V
12 °C 10 km+ 4.500 ft 240° 240° 8 kt METAR LYBT 211400Z 24008KT 200V270 9999 BKN045 12/05 Q1011 NOSIG
15:30
V
12 °C 10 km+ 4.000 ft 250° 250° 5 kt METAR LYBT 211330Z 25005KT 220V300 9999 BKN040 12/03 Q1011 NOSIG
15:00
V
13 °C 10 km+ 4.000 ft 270° 270° 6 kt METAR LYBT 211300Z 27006KT 240V340 9999 BKN040 13/04 Q1012 NOSIG
14:30
V
13 °C 10 km+ - 330° 330° 3 kt METAR LYBT 211230Z 33003KT 280V010 9999 SCT040 13/04 Q1012 NOSIG
14:00
V
12 °C 10 km+ - Var Var 3 kt METAR LYBT 211200Z VRB03KT 9999 SCT033 12/05 Q1012 NOSIG
13:30
V
12 °C 10 km+ 3.300 ft Var Var 3 kt METAR LYBT 211130Z VRB03KT 9999 BKN033 12/05 Q1012 NOSIG
13:00
V
12 °C 10 km+ 3.300 ft Var Var 2 kt METAR LYBT 211100Z VRB02KT 9999 BKN033 12/05 Q1012 NOSIG
12:30
M
11 °C 10 km+ 3.000 ft Var Var 2 kt METAR LYBT 211030Z VRB02KT 9999 BKN030 11/04 Q1012 NOSIG
12:00
M
11 °C 10 km+ 3.000 ft 280° 280° 5 kt METAR LYBT 211000Z 28005KT 200V320 9999 BKN030 11/05 Q1013 NOSIG
11:30
M
11 °C 10 km+ 2.800 ft 300° 300° 7 kt METAR LYBT 210930Z 30007KT 250V330 9999 BKN028 11/05 Q1013 NOSIG
11:00
M
11 °C 10 km+ 2.500 ft 310° 310° 6 kt METAR LYBT 210900Z 31006KT 260V010 9999 BKN025 11/05 Q1013 NOSIG
10:30
M
11 °C 10 km+ 2.300 ft 320° 320° 7 kt METAR LYBT 210830Z 32007KT 240V350 9999 BKN023 11/05 Q1013 NOSIG
10:00
V
10 °C 10 km+ - 320° 320° 8 kt METAR LYBT 210800Z 32008KT 280V350 9999 SCT020 10/05 Q1013 NOSIG
09:30
V
10 °C 10 km+ - 320° 320° 9 kt METAR LYBT 210730Z 32009KT 290V360 9999 SCT018 10/05 Q1013 NOSIG
09:00
M
9 °C 10 km+ 1.700 ft 330° 330° 10 kt METAR LYBT 210700Z 33010KT 290V010 9999 BKN017 09/05 Q1013 NOSIG
08:30
V
8 °C 10 km+ - 320° 320° 10 kt METAR LYBT 210630Z 32010KT 290V350 9999 SCT015 08/05 Q1013 NOSIG
08:00
V
8 °C 10 km+ - 320° 320° 10 kt METAR LYBT 210600Z 32010KT 290V350 9999 SCT015 08/05 Q1013 NOSIG
07:30
V
7 °C 10 km+ - 330° 330° 10 kt METAR LYBT 210530Z 33010KT 300V360 9999 FEW013 07/04 Q1013 NOSIG
07:00
V
7 °C 10 km+ - 320° 320° 10 kt METAR LYBT 210500Z 32010KT 280V350 CAVOK 07/04 Q1013 NOSIG
06:30
V
7 °C 10 km+ - 330° 330° 12 kt METAR LYBT 210430Z 33012KT CAVOK 07/04 Q1012 NOSIG
06:00
V
6 °C 10 km+ - 310° 310° 7 kt METAR LYBT 210400Z 31007KT 280V350 CAVOK 06/04 Q1012 NOSIG
05:30
V
6 °C 10 km+ - 340° 340° 12 kt METAR LYBT 210330Z 34012KT CAVOK 06/04 Q1012 NOSIG
05:00
V
6 °C 10 km+ - 340° 340° 13 kt METAR LYBT 210300Z 34013KT CAVOK 06/04 Q1012 NOSIG
04:30
V
7 °C 10 km+ - 350° 350° 12 kt METAR LYBT 210230Z 35012KT CAVOK 07/04 Q1012 NOSIG
04:00
V
7 °C 10 km+ - 350° 350° 13 kt METAR LYBT 210200Z 35013KT CAVOK 07/04 Q1012 NOSIG
03:30
V
7 °C 10 km+ - 350° 350° 12 kt METAR LYBT 210130Z 35012KT CAVOK 07/04 Q1012 NOSIG
03:00
V
8 °C 10 km+ - 340° 340° 12 kt METAR LYBT 210100Z 34012KT 310V010 CAVOK 08/03 Q1012 NOSIG
02:30
V
8 °C 10 km+ - 340° 340° 10 kt METAR LYBT 210030Z 34010KT CAVOK 08/03 Q1012 NOSIG
02:00
V
8 °C 10 km+ - 330° 330° 9 kt METAR LYBT 210000Z 33009KT CAVOK 08/03 Q1012 NOSIG
01:30
V
8 °C 10 km+ - 340° 340° 7 kt METAR LYBT 202330Z 34007KT CAVOK 08/03 Q1012 NOSIG
01:00
V
8 °C 10 km+ - 330° 330° 7 kt METAR LYBT 202300Z 33007KT CAVOK 08/03 Q1012 NOSIG
00:30
V
8 °C 10 km+ - 340° 340° 8 kt METAR LYBT 202230Z 34008KT CAVOK 08/02 Q1012 NOSIG
00:00
V
7 °C 10 km+ - 330° 330° 6 kt METAR LYBT 202200Z 33006KT CAVOK 07/03 Q1012 NOSIG

20 aprile 2024

Tempo Codice Tempo meteorologico Temp. Vista Base nuvolosa Vento METAR/SPECI
23:30
V
8 °C 10 km+ - 350° 350° 3 kt METAR LYBT 202130Z 35003KT CAVOK 08/02 Q1012 NOSIG
23:00
V
9 °C 10 km+ - 010° 010° 4 kt METAR LYBT 202100Z 01004KT CAVOK 09/02 Q1011 NOSIG
22:30
V
10 °C 10 km+ - 010° 010° 3 kt METAR LYBT 202030Z 01003KT CAVOK 10/02 Q1011 NOSIG
22:00
V
10 °C 10 km+ - 030° 030° 3 kt METAR LYBT 202000Z 03003KT CAVOK 10/01 Q1011 NOSIG
21:30
V
11 °C 10 km+ - 030° 030° 4 kt METAR LYBT 201930Z 03004KT CAVOK 11/00 Q1011 NOSIG
21:00
V
11 °C 10 km+ - 020° 020° 5 kt METAR LYBT 201900Z 02005KT CAVOK 11/00 Q1011 NOSIG
20:30
V
12 °C 10 km+ - 020° 020° 4 kt METAR LYBT 201830Z 02004KT CAVOK 12/M00 Q1011 NOSIG
20:00
V
13 °C 10 km+ - 020° 020° 5 kt METAR LYBT 201800Z 02005KT CAVOK 13/M01 Q1010 NOSIG
19:30
V
13 °C 10 km+ - 030° 030° 5 kt METAR LYBT 201730Z 03005KT CAVOK 13/M00 Q1010 NOSIG
19:00
V
14 °C 10 km+ - 020° 020° 6 kt METAR LYBT 201700Z 02006KT CAVOK 14/M01 Q1010 NOSIG
18:30
V
15 °C 10 km+ - 050° 050° 5 kt METAR LYBT 201630Z 05005KT CAVOK 15/M02 Q1010 NOSIG
18:00
V
15 °C 10 km+ - 050° 050° 5 kt METAR LYBT 201600Z 05005KT CAVOK 15/M03 Q1010 NOSIG
17:30
V
15 °C 10 km+ - 020° 020° 6 kt METAR LYBT 201530Z 02006KT CAVOK 15/M03 Q1010 NOSIG
17:00
V
16 °C 10 km+ - 070° 070° 4 kt METAR LYBT 201500Z 07004KT 020V160 CAVOK 16/M04 Q1009 NOSIG
16:30
V
15 °C 10 km+ - Var Var 2 kt METAR LYBT 201430Z VRB02KT CAVOK 15/M03 Q1010 NOSIG
16:00
V
17 °C 10 km+ - Var Var 1 kt METAR LYBT 201400Z VRB01KT CAVOK 17/M03 Q1009 NOSIG
15:30
V
16 °C 10 km+ - 030° 030° 5 kt METAR LYBT 201330Z 03005KT 310V090 CAVOK 16/M02 Q1009 NOSIG
15:00
V
16 °C 10 km+ - 080° 080° 1 kt METAR LYBT 201300Z 08001KT CAVOK 16/M02 Q1010 NOSIG
14:30
V
16 °C 10 km+ - 020° 020° 3 kt METAR LYBT 201230Z 02003KT 290V090 CAVOK 16/M01 Q1010 NOSIG
14:00
V
16 °C 10 km+ - Var Var 4 kt METAR LYBT 201200Z VRB04KT CAVOK 16/M01 Q1010 NOSIG
13:30
V
16 °C 10 km+ - Var Var 6 kt METAR LYBT 201130Z VRB06KT CAVOK 16/M01 Q1010 NOSIG
13:00
V
15 °C 10 km+ - Var Var 6 kt METAR LYBT 201100Z VRB06KT CAVOK 15/M01 Q1010 NOSIG
12:30
V
15 °C 10 km+ - Var Var 3 kt METAR LYBT 201030Z VRB03KT CAVOK 15/M02 Q1010 NOSIG
12:00
V
15 °C 10 km+ - Var Var 2 kt METAR LYBT 201000Z VRB02KT CAVOK 15/M02 Q1010 NOSIG
11:30
V
15 °C 10 km+ - 200° 200° 4 kt METAR LYBT 200930Z 20004KT 130V290 CAVOK 15/M02 Q1010 NOSIG
11:00
V
14 °C 10 km+ - 180° 180° 5 kt METAR LYBT 200900Z 18005KT 090V210 CAVOK 14/M01 Q1010 NOSIG
10:30
V
14 °C 10 km+ - 140° 140° 5 kt METAR LYBT 200830Z 14005KT 070V200 CAVOK 14/01 Q1010 NOSIG
10:00
V
13 °C 10 km+ - 130° 130° 6 kt METAR LYBT 200800Z 13006KT 080V160 CAVOK 13/01 Q1010 NOSIG
09:30
V
12 °C 10 km+ - 120° 120° 5 kt METAR LYBT 200730Z 12005KT 080V160 CAVOK 12/02 Q1010 NOSIG
09:00
V
10 °C 10 km+ - 100° 100° 3 kt METAR LYBT 200700Z 10003KT 060V140 CAVOK 10/03 Q1011 NOSIG
08:30
V
8 °C 10 km+ - Var Var 2 kt METAR LYBT 200630Z VRB02KT CAVOK 08/05 Q1010 NOSIG
08:00
V
5 °C 10 km+ - Var Var 1 kt METAR LYBT 200600Z VRB01KT CAVOK 05/04 Q1010 NOSIG
Segnala modifiche